sensor_id;sensor_type;location;lat;lon;timestamp;P1;durP1;ratioP1;P2;durP2;ratioP2
18999;SDS011;9633;50.980;13.850;2024-01-15T00:01:17;11.33;;;6.40;;
18999;SDS011;9633;50.980;13.850;2024-01-15T00:02:50;12.83;;;6.33;;
18999;SDS011;9633;50.980;13.850;2024-01-15T00:04:24;10.37;;;6.07;;
18999;SDS011;9633;50.980;13.850;2024-01-15T00:05:57;11.67;;;6.43;;
18999;SDS011;9633;50.980;13.850;2024-01-15T00:07:30;10.97;;;6.40;;
18999;SDS011;9633;50.980;13.850;2024-01-15T00:09:03;10.87;;;6.40;;
18999;SDS011;9633;50.980;13.850;2024-01-15T00:10:38;12.97;;;7.00;;
18999;SDS011;9633;50.980;13.850;2024-01-15T00:12:11;12.87;;;6.90;;
18999;SDS011;9633;50.980;13.850;2024-01-15T00:13:45;12.48;;;6.35;;
18999;SDS011;9633;50.980;13.850;2024-01-15T00:15:17;12.13;;;6.60;;
18999;SDS011;9633;50.980;13.850;2024-01-15T00:16:50;13.23;;;6.78;;
18999;SDS011;9633;50.980;13.850;2024-01-15T00:18:22;11.47;;;6.30;;
18999;SDS011;9633;50.980;13.850;2024-01-15T00:19:56;13.57;;;7.17;;
18999;SDS011;9633;50.980;13.850;2024-01-15T00:21:30;13.47;;;7.10;;
18999;SDS011;9633;50.980;13.850;2024-01-15T00:23:03;12.03;;;6.97;;
18999;SDS011;9633;50.980;13.850;2024-01-15T00:24:36;14.27;;;7.03;;
18999;SDS011;9633;50.980;13.850;2024-01-15T00:26:08;12.33;;;6.87;;
18999;SDS011;9633;50.980;13.850;2024-01-15T00:27:42;13.70;;;7.30;;
18999;SDS011;9633;50.980;13.850;2024-01-15T00:29:14;11.67;;;6.37;;
18999;SDS011;9633;50.980;13.850;2024-01-15T00:30:47;16.10;;;7.15;;
18999;SDS011;9633;50.980;13.850;2024-01-15T00:32:20;13.13;;;6.97;;
18999;SDS011;9633;50.980;13.850;2024-01-15T00:33:53;12.45;;;6.90;;
18999;SDS011;9633;50.980;13.850;2024-01-15T00:35:25;13.23;;;7.50;;
18999;SDS011;9633;50.980;13.850;2024-01-15T00:37:00;12.93;;;6.27;;
18999;SDS011;9633;50.980;13.850;2024-01-15T00:38:32;12.20;;;7.17;;
18999;SDS011;9633;50.980;13.850;2024-01-15T00:40:06;11.73;;;6.55;;
18999;SDS011;9633;50.980;13.850;2024-01-15T00:41:39;15.13;;;7.73;;
18999;SDS011;9633;50.980;13.850;2024-01-15T00:43:12;14.70;;;7.43;;
18999;SDS011;9633;50.980;13.850;2024-01-15T00:44:45;12.80;;;7.10;;
18999;SDS011;9633;50.980;13.850;2024-01-15T00:46:18;12.60;;;7.32;;
18999;SDS011;9633;50.980;13.850;2024-01-15T00:47:50;13.43;;;6.53;;
18999;SDS011;9633;50.980;13.850;2024-01-15T00:49:24;11.77;;;6.40;;
18999;SDS011;9633;50.980;13.850;2024-01-15T00:50:58;12.03;;;6.57;;
18999;SDS011;9633;50.980;13.850;2024-01-15T00:52:33;11.57;;;6.93;;
18999;SDS011;9633;50.980;13.850;2024-01-15T00:54:05;13.37;;;6.30;;
18999;SDS011;9633;50.980;13.850;2024-01-15T00:55:38;15.07;;;7.47;;
18999;SDS011;9633;50.980;13.850;2024-01-15T00:57:12;14.03;;;7.20;;
18999;SDS011;9633;50.980;13.850;2024-01-15T00:58:44;11.23;;;6.37;;
18999;SDS011;9633;50.980;13.850;2024-01-15T01:00:17;12.53;;;6.93;;
18999;SDS011;9633;50.980;13.850;2024-01-15T01:01:49;12.53;;;6.83;;
18999;SDS011;9633;50.980;13.850;2024-01-15T01:03:23;12.33;;;7.40;;
18999;SDS011;9633;50.980;13.850;2024-01-15T01:04:55;12.40;;;7.10;;
18999;SDS011;9633;50.980;13.850;2024-01-15T01:06:28;11.03;;;6.60;;
18999;SDS011;9633;50.980;13.850;2024-01-15T01:08:06;13.17;;;6.87;;
18999;SDS011;9633;50.980;13.850;2024-01-15T01:09:39;11.60;;;6.87;;
18999;SDS011;9633;50.980;13.850;2024-01-15T01:11:12;12.30;;;7.00;;
18999;SDS011;9633;50.980;13.850;2024-01-15T01:12:45;12.43;;;6.50;;
18999;SDS011;9633;50.980;13.850;2024-01-15T01:14:18;12.43;;;6.70;;
18999;SDS011;9633;50.980;13.850;2024-01-15T01:15:51;13.90;;;7.20;;
18999;SDS011;9633;50.980;13.850;2024-01-15T01:17:24;10.77;;;6.40;;
18999;SDS011;9633;50.980;13.850;2024-01-15T01:18:57;12.00;;;6.27;;
18999;SDS011;9633;50.980;13.850;2024-01-15T01:20:30;11.73;;;6.73;;
18999;SDS011;9633;50.980;13.850;2024-01-15T01:22:03;11.53;;;7.27;;
18999;SDS011;9633;50.980;13.850;2024-01-15T01:23:37;13.30;;;6.60;;
18999;SDS011;9633;50.980;13.850;2024-01-15T01:25:12;12.17;;;6.63;;
18999;SDS011;9633;50.980;13.850;2024-01-15T01:26:44;12.30;;;6.40;;
18999;SDS011;9633;50.980;13.850;2024-01-15T01:28:18;11.37;;;6.10;;
18999;SDS011;9633;50.980;13.850;2024-01-15T01:29:50;12.32;;;6.60;;
18999;SDS011;9633;50.980;13.850;2024-01-15T01:31:23;10.10;;;5.83;;
18999;SDS011;9633;50.980;13.850;2024-01-15T01:32:56;12.27;;;6.53;;
18999;SDS011;9633;50.980;13.850;2024-01-15T01:34:29;12.50;;;7.20;;
18999;SDS011;9633;50.980;13.850;2024-01-15T01:36:06;12.80;;;6.93;;
18999;SDS011;9633;50.980;13.850;2024-01-15T01:37:40;12.35;;;7.28;;
18999;SDS011;9633;50.980;13.850;2024-01-15T01:39:14;10.67;;;5.80;;
18999;SDS011;9633;50.980;13.850;2024-01-15T01:40:47;13.40;;;7.80;;
18999;SDS011;9633;50.980;13.850;2024-01-15T01:42:19;11.27;;;6.17;;
18999;SDS011;9633;50.980;13.850;2024-01-15T01:43:53;13.77;;;6.97;;
18999;SDS011;9633;50.980;13.850;2024-01-15T01:45:25;12.55;;;5.97;;
18999;SDS011;9633;50.980;13.850;2024-01-15T01:46:58;11.55;;;6.20;;
18999;SDS011;9633;50.980;13.850;2024-01-15T01:48:32;12.40;;;6.80;;
18999;SDS011;9633;50.980;13.850;2024-01-15T01:50:06;12.10;;;6.27;;
18999;SDS011;9633;50.980;13.850;2024-01-15T01:51:39;11.87;;;6.40;;
18999;SDS011;9633;50.980;13.850;2024-01-15T01:53:12;11.23;;;6.30;;
18999;SDS011;9633;50.980;13.850;2024-01-15T01:54:46;11.68;;;6.22;;
18999;SDS011;9633;50.980;13.850;2024-01-15T01:56:19;10.57;;;6.70;;
18999;SDS011;9633;50.980;13.850;2024-01-15T01:57:53;11.47;;;6.63;;
18999;SDS011;9633;50.980;13.850;2024-01-15T01:59:27;11.20;;;6.22;;
18999;SDS011;9633;50.980;13.850;2024-01-15T02:01:00;12.80;;;6.57;;
18999;SDS011;9633;50.980;13.850;2024-01-15T02:02:33;10.63;;;6.63;;
18999;SDS011;9633;50.980;13.850;2024-01-15T02:04:07;12.93;;;6.47;;
18999;SDS011;9633;50.980;13.850;2024-01-15T02:05:40;11.23;;;6.17;;
18999;SDS011;9633;50.980;13.850;2024-01-15T02:07:16;12.45;;;7.10;;
18999;SDS011;9633;50.980;13.850;2024-01-15T02:08:49;12.67;;;6.27;;
18999;SDS011;9633;50.980;13.850;2024-01-15T02:10:24;11.93;;;6.40;;
18999;SDS011;9633;50.980;13.850;2024-01-15T02:11:56;12.93;;;7.15;;
18999;SDS011;9633;50.980;13.850;2024-01-15T02:13:30;12.43;;;6.97;;
18999;SDS011;9633;50.980;13.850;2024-01-15T02:15:02;14.15;;;6.95;;
18999;SDS011;9633;50.980;13.850;2024-01-15T02:16:36;12.77;;;7.40;;
18999;SDS011;9633;50.980;13.850;2024-01-15T02:18:08;14.70;;;7.30;;
18999;SDS011;9633;50.980;13.850;2024-01-15T02:19:42;13.25;;;7.30;;
18999;SDS011;9633;50.980;13.850;2024-01-15T02:21:14;12.40;;;6.97;;
18999;SDS011;9633;50.980;13.850;2024-01-15T02:22:47;13.02;;;7.00;;
18999;SDS011;9633;50.980;13.850;2024-01-15T02:24:21;13.23;;;6.90;;
18999;SDS011;9633;50.980;13.850;2024-01-15T02:25:55;12.48;;;6.78;;
18999;SDS011;9633;50.980;13.850;2024-01-15T02:27:27;13.55;;;6.60;;
18999;SDS011;9633;50.980;13.850;2024-01-15T02:29:00;13.57;;;6.93;;
18999;SDS011;9633;50.980;13.850;2024-01-15T02:30:33;14.00;;;7.40;;
18999;SDS011;9633;50.980;13.850;2024-01-15T02:32:09;13.35;;;7.15;;
18999;SDS011;9633;50.980;13.850;2024-01-15T02:33:42;14.30;;;7.80;;
18999;SDS011;9633;50.980;13.850;2024-01-15T02:35:15;12.18;;;6.72;;
18999;SDS011;9633;50.980;13.850;2024-01-15T02:36:47;14.38;;;7.68;;
18999;SDS011;9633;50.980;13.850;2024-01-15T02:38:21;13.87;;;7.20;;
18999;SDS011;9633;50.980;13.850;2024-01-15T02:39:55;11.83;;;6.90;;
18999;SDS011;9633;50.980;13.850;2024-01-15T02:41:28;15.68;;;7.65;;
18999;SDS011;9633;50.980;13.850;2024-01-15T02:43:01;13.80;;;6.63;;
18999;SDS011;9633;50.980;13.850;2024-01-15T02:44:33;12.30;;;7.15;;
18999;SDS011;9633;50.980;13.850;2024-01-15T02:46:06;11.35;;;7.00;;
18999;SDS011;9633;50.980;13.850;2024-01-15T02:47:39;12.57;;;6.63;;
18999;SDS011;9633;50.980;13.850;2024-01-15T02:49:12;13.20;;;7.43;;
18999;SDS011;9633;50.980;13.850;2024-01-15T02:50:44;12.75;;;7.40;;
18999;SDS011;9633;50.980;13.850;2024-01-15T02:52:17;14.38;;;7.50;;
18999;SDS011;9633;50.980;13.850;2024-01-15T02:53:50;13.97;;;7.97;;
18999;SDS011;9633;50.980;13.850;2024-01-15T02:55:24;15.52;;;7.47;;
18999;SDS011;9633;50.980;13.850;2024-01-15T02:56:56;13.93;;;7.90;;
18999;SDS011;9633;50.980;13.850;2024-01-15T02:58:29;13.77;;;7.50;;
18999;SDS011;9633;50.980;13.850;2024-01-15T03:00:02;14.23;;;7.68;;
18999;SDS011;9633;50.980;13.850;2024-01-15T03:01:36;16.65;;;7.85;;
18999;SDS011;9633;50.980;13.850;2024-01-15T03:03:08;13.23;;;7.38;;
18999;SDS011;9633;50.980;13.850;2024-01-15T03:04:42;14.23;;;7.57;;
18999;SDS011;9633;50.980;13.850;2024-01-15T03:06:15;12.25;;;7.35;;
18999;SDS011;9633;50.980;13.850;2024-01-15T03:07:48;12.75;;;7.68;;
18999;SDS011;9633;50.980;13.850;2024-01-15T03:09:20;13.77;;;7.70;;
18999;SDS011;9633;50.980;13.850;2024-01-15T03:10:55;15.65;;;7.55;;
18999;SDS011;9633;50.980;13.850;2024-01-15T03:12:27;13.80;;;7.70;;
18999;SDS011;9633;50.980;13.850;2024-01-15T03:14:00;14.20;;;7.70;;
18999;SDS011;9633;50.980;13.850;2024-01-15T03:15:33;12.63;;;7.40;;
18999;SDS011;9633;50.980;13.850;2024-01-15T03:17:05;13.43;;;7.07;;
18999;SDS011;9633;50.980;13.850;2024-01-15T03:18:40;15.77;;;8.02;;
18999;SDS011;9633;50.980;13.850;2024-01-15T03:20:12;14.93;;;8.10;;
18999;SDS011;9633;50.980;13.850;2024-01-15T03:21:46;14.47;;;8.13;;
18999;SDS011;9633;50.980;13.850;2024-01-15T03:23:18;13.35;;;7.70;;
18999;SDS011;9633;50.980;13.850;2024-01-15T03:24:52;12.33;;;6.97;;
18999;SDS011;9633;50.980;13.850;2024-01-15T03:26:26;13.07;;;7.67;;
18999;SDS011;9633;50.980;13.850;2024-01-15T03:27:59;14.43;;;8.27;;
18999;SDS011;9633;50.980;13.850;2024-01-15T03:29:32;15.55;;;8.60;;
18999;SDS011;9633;50.980;13.850;2024-01-15T03:31:04;14.13;;;7.80;;
18999;SDS011;9633;50.980;13.850;2024-01-15T03:32:38;17.38;;;8.43;;
18999;SDS011;9633;50.980;13.850;2024-01-15T03:34:10;15.68;;;8.90;;
18999;SDS011;9633;50.980;13.850;2024-01-15T03:35:44;14.40;;;8.63;;
18999;SDS011;9633;50.980;13.850;2024-01-15T03:37:16;15.10;;;8.38;;
18999;SDS011;9633;50.980;13.850;2024-01-15T03:38:49;15.90;;;8.20;;
18999;SDS011;9633;50.980;13.850;2024-01-15T03:40:21;17.65;;;9.27;;
18999;SDS011;9633;50.980;13.850;2024-01-15T03:41:56;14.32;;;8.20;;
18999;SDS011;9633;50.980;13.850;2024-01-15T03:43:29;15.98;;;9.00;;
18999;SDS011;9633;50.980;13.850;2024-01-15T03:45:02;16.27;;;8.73;;
18999;SDS011;9633;50.980;13.850;2024-01-15T03:46:34;17.33;;;8.43;;
18999;SDS011;9633;50.980;13.850;2024-01-15T03:48:08;18.17;;;9.73;;
18999;SDS011;9633;50.980;13.850;2024-01-15T03:49:40;18.70;;;10.25;;
18999;SDS011;9633;50.980;13.850;2024-01-15T03:51:15;17.03;;;8.90;;
18999;SDS011;9633;50.980;13.850;2024-01-15T03:52:49;16.73;;;8.95;;
18999;SDS011;9633;50.980;13.850;2024-01-15T03:54:22;16.48;;;8.75;;
18999;SDS011;9633;50.980;13.850;2024-01-15T03:55:55;15.98;;;8.88;;
18999;SDS011;9633;50.980;13.850;2024-01-15T03:57:29;16.02;;;9.68;;
18999;SDS011;9633;50.980;13.850;2024-01-15T03:59:02;18.10;;;9.77;;
18999;SDS011;9633;50.980;13.850;2024-01-15T04:00:35;18.53;;;8.97;;
18999;SDS011;9633;50.980;13.850;2024-01-15T04:02:08;17.77;;;9.00;;
18999;SDS011;9633;50.980;13.850;2024-01-15T04:03:41;15.38;;;9.70;;
18999;SDS011;9633;50.980;13.850;2024-01-15T04:05:14;15.03;;;9.20;;
18999;SDS011;9633;50.980;13.850;2024-01-15T04:06:47;16.08;;;9.63;;
18999;SDS011;9633;50.980;13.850;2024-01-15T04:08:20;17.80;;;10.02;;
18999;SDS011;9633;50.980;13.850;2024-01-15T04:09:53;16.77;;;8.80;;
18999;SDS011;9633;50.980;13.850;2024-01-15T04:11:26;17.15;;;9.32;;
18999;SDS011;9633;50.980;13.850;2024-01-15T04:13:00;15.73;;;8.23;;
18999;SDS011;9633;50.980;13.850;2024-01-15T04:14:35;18.20;;;9.87;;
18999;SDS011;9633;50.980;13.850;2024-01-15T04:16:07;18.40;;;9.17;;
18999;SDS011;9633;50.980;13.850;2024-01-15T04:17:40;17.30;;;8.40;;
18999;SDS011;9633;50.980;13.850;2024-01-15T04:19:12;17.10;;;8.57;;
18999;SDS011;9633;50.980;13.850;2024-01-15T04:20:46;18.58;;;9.85;;
18999;SDS011;9633;50.980;13.850;2024-01-15T04:22:18;17.92;;;9.48;;
18999;SDS011;9633;50.980;13.850;2024-01-15T04:23:51;18.75;;;9.02;;
18999;SDS011;9633;50.980;13.850;2024-01-15T04:25:23;17.70;;;9.50;;
18999;SDS011;9633;50.980;13.850;2024-01-15T04:26:56;19.77;;;9.18;;
18999;SDS011;9633;50.980;13.850;2024-01-15T04:28:30;17.35;;;9.18;;
18999;SDS011;9633;50.980;13.850;2024-01-15T04:30:03;16.70;;;9.40;;
18999;SDS011;9633;50.980;13.850;2024-01-15T04:31:36;17.02;;;8.85;;
18999;SDS011;9633;50.980;13.850;2024-01-15T04:33:10;19.45;;;9.77;;
18999;SDS011;9633;50.980;13.850;2024-01-15T04:34:42;16.63;;;9.15;;
18999;SDS011;9633;50.980;13.850;2024-01-15T04:36:15;16.27;;;9.00;;
18999;SDS011;9633;50.980;13.850;2024-01-15T04:37:49;17.77;;;8.50;;
18999;SDS011;9633;50.980;13.850;2024-01-15T04:39:21;17.40;;;9.18;;
18999;SDS011;9633;50.980;13.850;2024-01-15T04:40:55;15.85;;;7.72;;
18999;SDS011;9633;50.980;13.850;2024-01-15T04:42:29;17.80;;;8.73;;
18999;SDS011;9633;50.980;13.850;2024-01-15T04:44:03;16.05;;;8.85;;
18999;SDS011;9633;50.980;13.850;2024-01-15T04:45:36;17.33;;;8.70;;
18999;SDS011;9633;50.980;13.850;2024-01-15T04:47:09;16.42;;;8.80;;
18999;SDS011;9633;50.980;13.850;2024-01-15T04:48:42;18.45;;;9.07;;
18999;SDS011;9633;50.980;13.850;2024-01-15T04:50:15;16.42;;;7.93;;
18999;SDS011;9633;50.980;13.850;2024-01-15T04:51:48;16.38;;;8.73;;
18999;SDS011;9633;50.980;13.850;2024-01-15T04:53:22;16.50;;;8.55;;
18999;SDS011;9633;50.980;13.850;2024-01-15T04:54:54;15.48;;;8.93;;
18999;SDS011;9633;50.980;13.850;2024-01-15T04:56:28;17.95;;;8.25;;
18999;SDS011;9633;50.980;13.850;2024-01-15T04:58:00;15.23;;;8.60;;
18999;SDS011;9633;50.980;13.850;2024-01-15T04:59:35;16.17;;;8.80;;
18999;SDS011;9633;50.980;13.850;2024-01-15T05:01:07;14.27;;;7.72;;
18999;SDS011;9633;50.980;13.850;2024-01-15T05:02:42;16.13;;;7.90;;
18999;SDS011;9633;50.980;13.850;2024-01-15T05:04:14;14.88;;;8.05;;
18999;SDS011;9633;50.980;13.850;2024-01-15T05:05:48;15.07;;;8.02;;
18999;SDS011;9633;50.980;13.850;2024-01-15T05:07:21;16.27;;;7.63;;
18999;SDS011;9633;50.980;13.850;2024-01-15T05:08:54;18.00;;;8.93;;
18999;SDS011;9633;50.980;13.850;2024-01-15T05:10:27;15.35;;;8.00;;
18999;SDS011;9633;50.980;13.850;2024-01-15T05:12:00;17.60;;;8.52;;
18999;SDS011;9633;50.980;13.850;2024-01-15T05:13:32;19.23;;;8.65;;
18999;SDS011;9633;50.980;13.850;2024-01-15T05:15:07;17.15;;;8.80;;
18999;SDS011;9633;50.980;13.850;2024-01-15T05:16:46;15.43;;;8.77;;
18999;SDS011;9633;50.980;13.850;2024-01-15T05:18:19;15.35;;;8.20;;
18999;SDS011;9633;50.980;13.850;2024-01-15T05:19:53;19.05;;;9.05;;
18999;SDS011;9633;50.980;13.850;2024-01-15T05:21:26;15.55;;;8.38;;
18999;SDS011;9633;50.980;13.850;2024-01-15T05:22:59;16.08;;;8.48;;
18999;SDS011;9633;50.980;13.850;2024-01-15T05:24:33;15.15;;;8.23;;
18999;SDS011;9633;50.980;13.850;2024-01-15T05:26:05;15.50;;;8.15;;
18999;SDS011;9633;50.980;13.850;2024-01-15T05:27:40;16.48;;;8.00;;
18999;SDS011;9633;50.980;13.850;2024-01-15T05:29:12;16.98;;;8.82;;
18999;SDS011;9633;50.980;13.850;2024-01-15T05:30:47;16.08;;;7.95;;
18999;SDS011;9633;50.980;13.850;2024-01-15T05:32:22;15.20;;;7.28;;
18999;SDS011;9633;50.980;13.850;2024-01-15T05:33:55;15.70;;;8.70;;
18999;SDS011;9633;50.980;13.850;2024-01-15T05:35:28;16.77;;;8.68;;
18999;SDS011;9633;50.980;13.850;2024-01-15T05:37:01;17.92;;;8.50;;
18999;SDS011;9633;50.980;13.850;2024-01-15T05:38:34;17.00;;;8.82;;
18999;SDS011;9633;50.980;13.850;2024-01-15T05:40:07;16.35;;;8.27;;
18999;SDS011;9633;50.980;13.850;2024-01-15T05:41:40;13.98;;;8.07;;
18999;SDS011;9633;50.980;13.850;2024-01-15T05:43:13;14.75;;;7.60;;
18999;SDS011;9633;50.980;13.850;2024-01-15T05:44:47;13.73;;;7.80;;
18999;SDS011;9633;50.980;13.850;2024-01-15T05:46:21;15.40;;;7.65;;
18999;SDS011;9633;50.980;13.850;2024-01-15T05:47:54;17.67;;;9.80;;
18999;SDS011;9633;50.980;13.850;2024-01-15T05:49:27;15.30;;;7.45;;
18999;SDS011;9633;50.980;13.850;2024-01-15T05:51:01;13.55;;;7.25;;
18999;SDS011;9633;50.980;13.850;2024-01-15T05:52:34;13.55;;;7.40;;
18999;SDS011;9633;50.980;13.850;2024-01-15T05:54:07;17.90;;;7.70;;
18999;SDS011;9633;50.980;13.850;2024-01-15T05:55:40;15.55;;;7.25;;
18999;SDS011;9633;50.980;13.850;2024-01-15T05:57:13;14.00;;;6.93;;
18999;SDS011;9633;50.980;13.850;2024-01-15T05:58:46;16.83;;;7.78;;
18999;SDS011;9633;50.980;13.850;2024-01-15T06:00:20;17.70;;;8.40;;
18999;SDS011;9633;50.980;13.850;2024-01-15T06:01:54;16.58;;;8.40;;
18999;SDS011;9633;50.980;13.850;2024-01-15T06:03:27;14.15;;;7.70;;
18999;SDS011;9633;50.980;13.850;2024-01-15T06:05:00;17.75;;;7.95;;
18999;SDS011;9633;50.980;13.850;2024-01-15T06:06:34;17.35;;;7.80;;
18999;SDS011;9633;50.980;13.850;2024-01-15T06:08:07;15.27;;;8.00;;
18999;SDS011;9633;50.980;13.850;2024-01-15T06:09:40;14.85;;;7.68;;
18999;SDS011;9633;50.980;13.850;2024-01-15T06:11:13;17.90;;;7.93;;
18999;SDS011;9633;50.980;13.850;2024-01-15T06:12:46;17.70;;;8.38;;
18999;SDS011;9633;50.980;13.850;2024-01-15T06:14:20;14.13;;;7.38;;
18999;SDS011;9633;50.980;13.850;2024-01-15T06:15:52;13.68;;;7.20;;
18999;SDS011;9633;50.980;13.850;2024-01-15T06:17:27;15.00;;;8.18;;
18999;SDS011;9633;50.980;13.850;2024-01-15T06:19:01;15.15;;;8.13;;
18999;SDS011;9633;50.980;13.850;2024-01-15T06:20:33;14.35;;;7.50;;
18999;SDS011;9633;50.980;13.850;2024-01-15T06:22:07;14.18;;;7.00;;
18999;SDS011;9633;50.980;13.850;2024-01-15T06:23:40;15.68;;;7.45;;
18999;SDS011;9633;50.980;13.850;2024-01-15T06:25:13;16.70;;;8.57;;
18999;SDS011;9633;50.980;13.850;2024-01-15T06:26:46;14.98;;;7.50;;
18999;SDS011;9633;50.980;13.850;2024-01-15T06:28:19;17.27;;;7.95;;
18999;SDS011;9633;50.980;13.850;2024-01-15T06:29:53;16.77;;;7.72;;
18999;SDS011;9633;50.980;13.850;2024-01-15T06:31:27;16.92;;;7.90;;
18999;SDS011;9633;50.980;13.850;2024-01-15T06:33:02;16.73;;;8.02;;
18999;SDS011;9633;50.980;13.850;2024-01-15T06:34:35;16.35;;;7.93;;
18999;SDS011;9633;50.980;13.850;2024-01-15T06:36:08;14.93;;;7.22;;
18999;SDS011;9633;50.980;13.850;2024-01-15T06:37:42;16.35;;;8.18;;
18999;SDS011;9633;50.980;13.850;2024-01-15T06:39:16;15.77;;;7.85;;
18999;SDS011;9633;50.980;13.850;2024-01-15T06:40:48;16.90;;;8.13;;
18999;SDS011;9633;50.980;13.850;2024-01-15T06:42:25;15.15;;;7.70;;
18999;SDS011;9633;50.980;13.850;2024-01-15T06:43:58;12.90;;;7.53;;
18999;SDS011;9633;50.980;13.850;2024-01-15T06:45:31;12.88;;;7.60;;
18999;SDS011;9633;50.980;13.850;2024-01-15T06:47:05;13.15;;;7.35;;
18999;SDS011;9633;50.980;13.850;2024-01-15T06:48:38;15.63;;;7.43;;
18999;SDS011;9633;50.980;13.850;2024-01-15T06:50:12;14.55;;;7.63;;
18999;SDS011;9633;50.980;13.850;2024-01-15T06:51:45;16.17;;;8.10;;
18999;SDS011;9633;50.980;13.850;2024-01-15T06:53:20;14.60;;;6.68;;
18999;SDS011;9633;50.980;13.850;2024-01-15T06:54:52;15.55;;;6.88;;
18999;SDS011;9633;50.980;13.850;2024-01-15T06:56:26;13.70;;;7.78;;
18999;SDS011;9633;50.980;13.850;2024-01-15T06:57:59;14.27;;;7.38;;
18999;SDS011;9633;50.980;13.850;2024-01-15T06:59:32;16.42;;;7.38;;
18999;SDS011;9633;50.980;13.850;2024-01-15T07:01:06;15.32;;;7.05;;
18999;SDS011;9633;50.980;13.850;2024-01-15T07:02:40;13.98;;;7.18;;
18999;SDS011;9633;50.980;13.850;2024-01-15T07:04:14;15.57;;;7.68;;
18999;SDS011;9633;50.980;13.850;2024-01-15T07:05:47;12.60;;;6.93;;
18999;SDS011;9633;50.980;13.850;2024-01-15T07:07:21;12.20;;;6.95;;
18999;SDS011;9633;50.980;13.850;2024-01-15T07:08:53;12.57;;;6.57;;
18999;SDS011;9633;50.980;13.850;2024-01-15T07:10:27;12.65;;;6.32;;
18999;SDS011;9633;50.980;13.850;2024-01-15T07:11:59;15.43;;;7.28;;
18999;SDS011;9633;50.980;13.850;2024-01-15T07:13:33;10.98;;;5.93;;
18999;SDS011;9633;50.980;13.850;2024-01-15T07:15:06;12.65;;;7.35;;
18999;SDS011;9633;50.980;13.850;2024-01-15T07:16:39;13.63;;;6.80;;
18999;SDS011;9633;50.980;13.850;2024-01-15T07:18:12;14.15;;;6.93;;
18999;SDS011;9633;50.980;13.850;2024-01-15T07:19:47;12.52;;;6.63;;
18999;SDS011;9633;50.980;13.850;2024-01-15T07:21:20;11.73;;;6.05;;
18999;SDS011;9633;50.980;13.850;2024-01-15T07:22:53;12.65;;;6.20;;
18999;SDS011;9633;50.980;13.850;2024-01-15T07:24:26;13.80;;;6.35;;
18999;SDS011;9633;50.980;13.850;2024-01-15T07:25:59;12.98;;;6.38;;
18999;SDS011;9633;50.980;13.850;2024-01-15T07:27:32;13.05;;;6.10;;
18999;SDS011;9633;50.980;13.850;2024-01-15T07:29:06;12.88;;;6.15;;
18999;SDS011;9633;50.980;13.850;2024-01-15T07:30:39;12.63;;;6.72;;
18999;SDS011;9633;50.980;13.850;2024-01-15T07:32:13;12.10;;;6.50;;
18999;SDS011;9633;50.980;13.850;2024-01-15T07:33:45;14.38;;;6.90;;
18999;SDS011;9633;50.980;13.850;2024-01-15T07:35:20;13.40;;;7.40;;
18999;SDS011;9633;50.980;13.850;2024-01-15T07:36:53;11.00;;;5.93;;
18999;SDS011;9633;50.980;13.850;2024-01-15T07:38:27;14.32;;;6.68;;
18999;SDS011;9633;50.980;13.850;2024-01-15T07:39:59;12.98;;;6.95;;
18999;SDS011;9633;50.980;13.850;2024-01-15T07:41:34;14.13;;;7.18;;
18999;SDS011;9633;50.980;13.850;2024-01-15T07:43:07;12.95;;;6.18;;
18999;SDS011;9633;50.980;13.850;2024-01-15T07:44:40;13.10;;;6.72;;
18999;SDS011;9633;50.980;13.850;2024-01-15T07:46:13;15.55;;;8.05;;
18999;SDS011;9633;50.980;13.850;2024-01-15T07:47:46;16.27;;;7.13;;
18999;SDS011;9633;50.980;13.850;2024-01-15T07:49:19;11.20;;;6.13;;
18999;SDS011;9633;50.980;13.850;2024-01-15T07:50:54;12.90;;;6.63;;
18999;SDS011;9633;50.980;13.850;2024-01-15T07:52:26;8.98;;;5.60;;
18999;SDS011;9633;50.980;13.850;2024-01-15T07:54:00;13.77;;;7.45;;
18999;SDS011;9633;50.980;13.850;2024-01-15T07:55:32;9.93;;;5.75;;
18999;SDS011;9633;50.980;13.850;2024-01-15T07:57:05;10.95;;;5.80;;
18999;SDS011;9633;50.980;13.850;2024-01-15T07:58:38;11.80;;;6.20;;
18999;SDS011;9633;50.980;13.850;2024-01-15T08:00:11;11.25;;;6.50;;
18999;SDS011;9633;50.980;13.850;2024-01-15T08:01:44;12.85;;;6.47;;
18999;SDS011;9633;50.980;13.850;2024-01-15T08:03:17;9.23;;;5.15;;
18999;SDS011;9633;50.980;13.850;2024-01-15T08:04:50;12.85;;;6.88;;
18999;SDS011;9633;50.980;13.850;2024-01-15T08:06:24;11.65;;;6.75;;
18999;SDS011;9633;50.980;13.850;2024-01-15T08:07:58;11.70;;;6.35;;
18999;SDS011;9633;50.980;13.850;2024-01-15T08:09:30;14.25;;;6.93;;
18999;SDS011;9633;50.980;13.850;2024-01-15T08:11:03;12.95;;;6.22;;
18999;SDS011;9633;50.980;13.850;2024-01-15T08:12:36;12.05;;;6.50;;
18999;SDS011;9633;50.980;13.850;2024-01-15T08:14:10;11.07;;;5.88;;
18999;SDS011;9633;50.980;13.850;2024-01-15T08:15:42;13.30;;;6.28;;
18999;SDS011;9633;50.980;13.850;2024-01-15T08:17:16;11.35;;;6.30;;
18999;SDS011;9633;50.980;13.850;2024-01-15T08:18:48;11.95;;;6.10;;
18999;SDS011;9633;50.980;13.850;2024-01-15T08:20:21;11.80;;;6.13;;
18999;SDS011;9633;50.980;13.850;2024-01-15T08:21:55;11.27;;;6.57;;
18999;SDS011;9633;50.980;13.850;2024-01-15T08:23:28;12.90;;;6.30;;
18999;SDS011;9633;50.980;13.850;2024-01-15T08:25:02;11.30;;;6.13;;
18999;SDS011;9633;50.980;13.850;2024-01-15T08:26:36;9.75;;;5.47;;
18999;SDS011;9633;50.980;13.850;2024-01-15T08:28:08;12.87;;;6.27;;
18999;SDS011;9633;50.980;13.850;2024-01-15T08:29:41;12.65;;;6.00;;
18999;SDS011;9633;50.980;13.850;2024-01-15T08:31:13;10.50;;;6.13;;
18999;SDS011;9633;50.980;13.850;2024-01-15T08:32:47;12.18;;;5.60;;
18999;SDS011;9633;50.980;13.850;2024-01-15T08:34:20;11.15;;;5.65;;
18999;SDS011;9633;50.980;13.850;2024-01-15T08:35:52;11.98;;;5.85;;
18999;SDS011;9633;50.980;13.850;2024-01-15T08:37:27;13.13;;;6.00;;
18999;SDS011;9633;50.980;13.850;2024-01-15T08:38:59;10.88;;;6.13;;
18999;SDS011;9633;50.980;13.850;2024-01-15T08:40:32;9.57;;;5.63;;
18999;SDS011;9633;50.980;13.850;2024-01-15T08:42:05;12.52;;;6.57;;
18999;SDS011;9633;50.980;13.850;2024-01-15T08:43:39;11.05;;;6.13;;
18999;SDS011;9633;50.980;13.850;2024-01-15T08:45:11;11.27;;;5.85;;
18999;SDS011;9633;50.980;13.850;2024-01-15T08:46:45;12.82;;;6.25;;
18999;SDS011;9633;50.980;13.850;2024-01-15T08:48:18;10.00;;;5.47;;
18999;SDS011;9633;50.980;13.850;2024-01-15T08:49:50;10.77;;;6.27;;
18999;SDS011;9633;50.980;13.850;2024-01-15T08:51:25;11.35;;;6.03;;
18999;SDS011;9633;50.980;13.850;2024-01-15T08:52:59;13.15;;;6.18;;
18999;SDS011;9633;50.980;13.850;2024-01-15T08:54:32;11.37;;;6.27;;
18999;SDS011;9633;50.980;13.850;2024-01-15T08:56:06;14.02;;;6.78;;
18999;SDS011;9633;50.980;13.850;2024-01-15T08:57:40;10.97;;;6.10;;
18999;SDS011;9633;50.980;13.850;2024-01-15T08:59:14;10.50;;;5.57;;
18999;SDS011;9633;50.980;13.850;2024-01-15T09:00:47;9.02;;;5.28;;
18999;SDS011;9633;50.980;13.850;2024-01-15T09:02:22;7.93;;;4.97;;
18999;SDS011;9633;50.980;13.850;2024-01-15T09:03:54;10.45;;;5.47;;
18999;SDS011;9633;50.980;13.850;2024-01-15T09:05:28;10.60;;;5.67;;
18999;SDS011;9633;50.980;13.850;2024-01-15T09:07:02;10.07;;;5.18;;
18999;SDS011;9633;50.980;13.850;2024-01-15T09:08:36;9.98;;;5.47;;
18999;SDS011;9633;50.980;13.850;2024-01-15T09:10:10;10.00;;;5.25;;
18999;SDS011;9633;50.980;13.850;2024-01-15T09:11:44;12.15;;;5.70;;
18999;SDS011;9633;50.980;13.850;2024-01-15T09:13:17;8.80;;;5.03;;
18999;SDS011;9633;50.980;13.850;2024-01-15T09:14:51;9.43;;;4.60;;